sensor_id;sensor_type;location;lat;lon;timestamp;P1;durP1;ratioP1;P2;durP2;ratioP2
51664;SDS011;37751;52.408;12.536;2023-06-14T00:02:02;6.60;;;1.92;;
51664;SDS011;37751;52.408;12.536;2023-06-14T00:04:31;2.80;;;1.80;;
51664;SDS011;37751;52.408;12.536;2023-06-14T00:06:59;4.03;;;1.92;;
51664;SDS011;37751;52.408;12.536;2023-06-14T00:09:27;4.55;;;1.75;;
51664;SDS011;37751;52.408;12.536;2023-06-14T00:11:55;6.32;;;2.05;;
51664;SDS011;37751;52.408;12.536;2023-06-14T00:14:23;2.20;;;2.00;;
51664;SDS011;37751;52.408;12.536;2023-06-14T00:16:51;4.40;;;1.73;;
51664;SDS011;37751;52.408;12.536;2023-06-14T00:19:26;2.85;;;1.80;;
51664;SDS011;37751;52.408;12.536;2023-06-14T00:21:54;4.25;;;1.92;;
51664;SDS011;37751;52.408;12.536;2023-06-14T00:24:21;3.25;;;2.03;;
51664;SDS011;37751;52.408;12.536;2023-06-14T00:26:49;4.68;;;1.95;;
51664;SDS011;37751;52.408;12.536;2023-06-14T00:29:17;4.53;;;1.70;;
51664;SDS011;37751;52.408;12.536;2023-06-14T00:31:45;4.47;;;1.58;;
51664;SDS011;37751;52.408;12.536;2023-06-14T00:34:27;4.03;;;2.28;;
51664;SDS011;37751;52.408;12.536;2023-06-14T00:36:55;2.88;;;1.80;;
51664;SDS011;37751;52.408;12.536;2023-06-14T00:39:23;3.97;;;2.10;;
51664;SDS011;37751;52.408;12.536;2023-06-14T00:41:50;4.82;;;1.65;;
51664;SDS011;37751;52.408;12.536;2023-06-14T00:44:20;5.85;;;1.95;;
51664;SDS011;37751;52.408;12.536;2023-06-14T00:46:49;2.03;;;1.50;;
51664;SDS011;37751;52.408;12.536;2023-06-14T00:49:17;3.92;;;2.10;;
51664;SDS011;37751;52.408;12.536;2023-06-14T00:51:47;5.65;;;2.08;;
51664;SDS011;37751;52.408;12.536;2023-06-14T00:54:15;7.25;;;1.88;;
51664;SDS011;37751;52.408;12.536;2023-06-14T00:56:43;3.45;;;1.98;;
51664;SDS011;37751;52.408;12.536;2023-06-14T00:59:12;4.95;;;1.92;;
51664;SDS011;37751;52.408;12.536;2023-06-14T01:01:40;4.72;;;1.90;;
51664;SDS011;37751;52.408;12.536;2023-06-14T01:04:08;5.57;;;1.63;;
51664;SDS011;37751;52.408;12.536;2023-06-14T01:06:51;2.45;;;1.70;;
51664;SDS011;37751;52.408;12.536;2023-06-14T01:15:18;3.92;;;2.10;;
51664;SDS011;37751;52.408;12.536;2023-06-14T01:17:51;6.10;;;2.05;;
51664;SDS011;37751;52.408;12.536;2023-06-14T01:20:21;3.97;;;2.25;;
51664;SDS011;37751;52.408;12.536;2023-06-14T01:22:50;2.25;;;1.90;;
51664;SDS011;37751;52.408;12.536;2023-06-14T01:25:20;3.33;;;2.13;;
51664;SDS011;37751;52.408;12.536;2023-06-14T01:27:50;4.80;;;2.47;;
51664;SDS011;37751;52.408;12.536;2023-06-14T01:30:26;5.93;;;2.20;;
51664;SDS011;37751;52.408;12.536;2023-06-14T01:33:05;3.63;;;2.25;;
51664;SDS011;37751;52.408;12.536;2023-06-14T01:35:46;4.38;;;2.60;;
51664;SDS011;37751;52.408;12.536;2023-06-14T01:38:29;8.02;;;2.30;;
51664;SDS011;37751;52.408;12.536;2023-06-14T01:41:22;3.95;;;2.22;;
51664;SDS011;37751;52.408;12.536;2023-06-14T01:44:18;7.50;;;2.40;;
51664;SDS011;37751;52.408;12.536;2023-06-14T01:46:54;3.88;;;2.70;;
51664;SDS011;37751;52.408;12.536;2023-06-14T01:49:28;3.75;;;2.45;;
51664;SDS011;37751;52.408;12.536;2023-06-14T01:51:56;3.20;;;2.25;;
51664;SDS011;37751;52.408;12.536;2023-06-14T01:54:24;5.22;;;2.30;;
51664;SDS011;37751;52.408;12.536;2023-06-14T01:56:55;3.40;;;2.38;;
51664;SDS011;37751;52.408;12.536;2023-06-14T01:59:32;6.93;;;2.60;;
51664;SDS011;37751;52.408;12.536;2023-06-14T02:02:45;7.10;;;3.40;;
51664;SDS011;37751;52.408;12.536;2023-06-14T02:05:27;4.28;;;2.40;;
51664;SDS011;37751;52.408;12.536;2023-06-14T02:08:27;5.50;;;2.40;;
51664;SDS011;37751;52.408;12.536;2023-06-14T02:11:07;12.75;;;2.83;;
51664;SDS011;37751;52.408;12.536;2023-06-14T02:13:36;3.88;;;2.67;;
51664;SDS011;37751;52.408;12.536;2023-06-14T02:16:19;2.80;;;2.30;;
51664;SDS011;37751;52.408;12.536;2023-06-14T02:18:55;7.95;;;2.60;;
51664;SDS011;37751;52.408;12.536;2023-06-14T02:21:30;4.45;;;2.63;;
51664;SDS011;37751;52.408;12.536;2023-06-14T02:24:08;6.20;;;2.80;;
51664;SDS011;37751;52.408;12.536;2023-06-14T02:26:37;4.95;;;2.67;;
51664;SDS011;37751;52.408;12.536;2023-06-14T02:29:16;5.35;;;3.30;;
51664;SDS011;37751;52.408;12.536;2023-06-14T02:31:46;5.75;;;3.28;;
51664;SDS011;37751;52.408;12.536;2023-06-14T02:34:28;6.68;;;2.42;;
51664;SDS011;37751;52.408;12.536;2023-06-14T02:37:01;4.13;;;2.35;;
51664;SDS011;37751;52.408;12.536;2023-06-14T02:39:56;4.97;;;2.83;;
51664;SDS011;37751;52.408;12.536;2023-06-14T02:42:28;7.28;;;2.70;;
51664;SDS011;37751;52.408;12.536;2023-06-14T02:45:03;4.75;;;2.72;;
51664;SDS011;37751;52.408;12.536;2023-06-14T02:47:45;3.25;;;2.50;;
51664;SDS011;37751;52.408;12.536;2023-06-14T02:50:25;3.30;;;2.67;;
51664;SDS011;37751;52.408;12.536;2023-06-14T02:53:03;3.65;;;2.60;;
51664;SDS011;37751;52.408;12.536;2023-06-14T02:59:57;11.77;;;3.20;;
51664;SDS011;37751;52.408;12.536;2023-06-14T03:02:53;9.40;;;3.33;;
51664;SDS011;37751;52.408;12.536;2023-06-14T03:05:31;3.75;;;2.70;;
51664;SDS011;37751;52.408;12.536;2023-06-14T03:11:59;3.38;;;2.65;;
51664;SDS011;37751;52.408;12.536;2023-06-14T03:15:18;8.43;;;2.92;;
51664;SDS011;37751;52.408;12.536;2023-06-14T03:18:38;3.95;;;2.80;;
51664;SDS011;37751;52.408;12.536;2023-06-14T03:21:27;4.03;;;2.65;;
51664;SDS011;37751;52.408;12.536;2023-06-14T03:24:11;8.80;;;3.42;;
51664;SDS011;37751;52.408;12.536;2023-06-14T03:26:56;3.88;;;2.95;;
51664;SDS011;37751;52.408;12.536;2023-06-14T03:29:51;7.45;;;3.00;;
51664;SDS011;37751;52.408;12.536;2023-06-14T03:32:45;5.22;;;2.90;;
51664;SDS011;37751;52.408;12.536;2023-06-14T03:35:18;4.72;;;3.05;;
51664;SDS011;37751;52.408;12.536;2023-06-14T03:37:56;5.65;;;3.30;;
51664;SDS011;37751;52.408;12.536;2023-06-14T03:40:53;5.80;;;3.28;;
51664;SDS011;37751;52.408;12.536;2023-06-14T03:43:27;8.73;;;3.53;;
51664;SDS011;37751;52.408;12.536;2023-06-14T03:46:12;4.78;;;3.33;;
51664;SDS011;37751;52.408;12.536;2023-06-14T03:49:32;5.13;;;3.40;;
51664;SDS011;37751;52.408;12.536;2023-06-14T03:55:14;5.95;;;3.25;;
51664;SDS011;37751;52.408;12.536;2023-06-14T03:57:47;6.35;;;3.40;;
51664;SDS011;37751;52.408;12.536;2023-06-14T04:00:28;12.52;;;3.97;;
51664;SDS011;37751;52.408;12.536;2023-06-14T04:02:56;7.93;;;3.55;;
51664;SDS011;37751;52.408;12.536;2023-06-14T04:05:27;6.60;;;4.15;;
51664;SDS011;37751;52.408;12.536;2023-06-14T04:08:36;8.38;;;4.05;;
51664;SDS011;37751;52.408;12.536;2023-06-14T04:11:07;7.20;;;3.65;;
51664;SDS011;37751;52.408;12.536;2023-06-14T04:13:35;10.13;;;3.97;;
51664;SDS011;37751;52.408;12.536;2023-06-14T04:16:04;6.95;;;4.45;;
51664;SDS011;37751;52.408;12.536;2023-06-14T04:18:34;6.40;;;3.72;;
51664;SDS011;37751;52.408;12.536;2023-06-14T04:21:02;8.98;;;3.50;;
51664;SDS011;37751;52.408;12.536;2023-06-14T04:23:30;12.23;;;3.80;;
51664;SDS011;37751;52.408;12.536;2023-06-14T04:25:59;8.68;;;4.20;;
51664;SDS011;37751;52.408;12.536;2023-06-14T04:28:29;11.00;;;4.38;;
51664;SDS011;37751;52.408;12.536;2023-06-14T04:31:00;9.98;;;4.03;;
51664;SDS011;37751;52.408;12.536;2023-06-14T04:33:31;11.88;;;4.38;;
51664;SDS011;37751;52.408;12.536;2023-06-14T04:35:59;13.23;;;5.00;;
51664;SDS011;37751;52.408;12.536;2023-06-14T04:38:28;9.25;;;4.47;;
51664;SDS011;37751;52.408;12.536;2023-06-14T04:40:56;9.77;;;4.75;;
51664;SDS011;37751;52.408;12.536;2023-06-14T04:43:29;6.22;;;4.53;;
51664;SDS011;37751;52.408;12.536;2023-06-14T04:45:57;6.07;;;4.18;;
51664;SDS011;37751;52.408;12.536;2023-06-14T04:48:26;7.90;;;4.43;;
51664;SDS011;37751;52.408;12.536;2023-06-14T04:50:55;7.80;;;4.53;;
51664;SDS011;37751;52.408;12.536;2023-06-14T04:53:23;7.55;;;4.03;;
51664;SDS011;37751;52.408;12.536;2023-06-14T04:55:55;7.20;;;4.68;;
51664;SDS011;37751;52.408;12.536;2023-06-14T04:58:23;7.00;;;4.15;;
51664;SDS011;37751;52.408;12.536;2023-06-14T05:00:51;6.63;;;4.53;;
51664;SDS011;37751;52.408;12.536;2023-06-14T05:03:20;10.45;;;5.38;;
51664;SDS011;37751;52.408;12.536;2023-06-14T05:05:48;9.02;;;5.05;;
51664;SDS011;37751;52.408;12.536;2023-06-14T05:08:17;10.93;;;4.68;;
51664;SDS011;37751;52.408;12.536;2023-06-14T05:10:46;13.00;;;4.80;;
51664;SDS011;37751;52.408;12.536;2023-06-14T05:13:14;7.93;;;4.25;;
51664;SDS011;37751;52.408;12.536;2023-06-14T05:15:42;8.85;;;4.75;;
51664;SDS011;37751;52.408;12.536;2023-06-14T05:18:10;8.05;;;5.05;;
51664;SDS011;37751;52.408;12.536;2023-06-14T05:20:38;9.48;;;5.50;;
51664;SDS011;37751;52.408;12.536;2023-06-14T05:23:06;8.63;;;4.75;;
51664;SDS011;37751;52.408;12.536;2023-06-14T05:25:34;7.97;;;4.65;;
51664;SDS011;37751;52.408;12.536;2023-06-14T05:28:03;8.85;;;5.20;;
51664;SDS011;37751;52.408;12.536;2023-06-14T05:30:30;7.15;;;5.18;;
51664;SDS011;37751;52.408;12.536;2023-06-14T05:33:00;8.20;;;5.05;;
51664;SDS011;37751;52.408;12.536;2023-06-14T05:35:28;10.98;;;5.10;;
51664;SDS011;37751;52.408;12.536;2023-06-14T05:37:56;7.65;;;4.90;;
51664;SDS011;37751;52.408;12.536;2023-06-14T05:40:24;13.73;;;7.97;;
51664;SDS011;37751;52.408;12.536;2023-06-14T05:42:52;9.45;;;5.53;;
51664;SDS011;37751;52.408;12.536;2023-06-14T05:45:20;7.15;;;4.90;;
51664;SDS011;37751;52.408;12.536;2023-06-14T05:47:48;11.25;;;5.00;;
51664;SDS011;37751;52.408;12.536;2023-06-14T05:50:16;8.98;;;5.03;;
51664;SDS011;37751;52.408;12.536;2023-06-14T05:52:44;13.73;;;5.15;;
51664;SDS011;37751;52.408;12.536;2023-06-14T05:55:12;12.70;;;5.18;;
51664;SDS011;37751;52.408;12.536;2023-06-14T05:57:41;13.38;;;5.63;;
51664;SDS011;37751;52.408;12.536;2023-06-14T06:00:09;6.50;;;5.00;;
51664;SDS011;37751;52.408;12.536;2023-06-14T06:02:43;7.25;;;4.95;;
51664;SDS011;37751;52.408;12.536;2023-06-14T06:05:11;7.32;;;4.82;;
51664;SDS011;37751;52.408;12.536;2023-06-14T06:07:40;8.90;;;5.75;;
51664;SDS011;37751;52.408;12.536;2023-06-14T06:10:09;11.27;;;5.40;;
51664;SDS011;37751;52.408;12.536;2023-06-14T06:12:37;8.43;;;4.70;;
51664;SDS011;37751;52.408;12.536;2023-06-14T06:15:05;6.13;;;4.70;;
51664;SDS011;37751;52.408;12.536;2023-06-14T06:17:33;6.43;;;4.97;;
51664;SDS011;37751;52.408;12.536;2023-06-14T06:20:21;8.02;;;4.32;;
51664;SDS011;37751;52.408;12.536;2023-06-14T06:22:56;6.60;;;4.68;;
51664;SDS011;37751;52.408;12.536;2023-06-14T06:25:26;9.80;;;4.57;;
51664;SDS011;37751;52.408;12.536;2023-06-14T06:27:54;6.88;;;4.47;;
51664;SDS011;37751;52.408;12.536;2023-06-14T06:30:25;7.63;;;4.22;;
51664;SDS011;37751;52.408;12.536;2023-06-14T06:32:53;4.40;;;3.75;;
51664;SDS011;37751;52.408;12.536;2023-06-14T06:35:23;8.88;;;3.83;;
51664;SDS011;37751;52.408;12.536;2023-06-14T06:37:51;9.70;;;4.68;;
51664;SDS011;37751;52.408;12.536;2023-06-14T06:40:20;7.60;;;4.32;;
51664;SDS011;37751;52.408;12.536;2023-06-14T06:42:47;4.82;;;4.00;;
51664;SDS011;37751;52.408;12.536;2023-06-14T06:45:19;7.13;;;4.32;;
51664;SDS011;37751;52.408;12.536;2023-06-14T06:47:50;4.88;;;4.18;;
51664;SDS011;37751;52.408;12.536;2023-06-14T06:50:19;8.13;;;4.60;;
51664;SDS011;37751;52.408;12.536;2023-06-14T06:52:47;6.63;;;3.53;;
51664;SDS011;37751;52.408;12.536;2023-06-14T06:55:15;6.72;;;4.35;;
51664;SDS011;37751;52.408;12.536;2023-06-14T06:57:43;4.72;;;3.85;;
51664;SDS011;37751;52.408;12.536;2023-06-14T07:00:11;6.55;;;5.18;;
51664;SDS011;37751;52.408;12.536;2023-06-14T07:02:40;7.85;;;4.45;;
51664;SDS011;37751;52.408;12.536;2023-06-14T07:05:08;6.35;;;4.43;;
51664;SDS011;37751;52.408;12.536;2023-06-14T07:07:37;7.78;;;4.45;;
51664;SDS011;37751;52.408;12.536;2023-06-14T07:10:05;10.88;;;4.20;;
51664;SDS011;37751;52.408;12.536;2023-06-14T07:12:34;6.25;;;4.07;;
51664;SDS011;37751;52.408;12.536;2023-06-14T07:15:07;5.88;;;4.13;;
51664;SDS011;37751;52.408;12.536;2023-06-14T07:17:36;7.85;;;4.70;;
51664;SDS011;37751;52.408;12.536;2023-06-14T07:20:04;6.57;;;4.28;;
51664;SDS011;37751;52.408;12.536;2023-06-14T07:22:35;8.55;;;4.85;;
51664;SDS011;37751;52.408;12.536;2023-06-14T07:25:03;6.22;;;4.57;;
51664;SDS011;37751;52.408;12.536;2023-06-14T07:27:31;10.48;;;4.50;;
51664;SDS011;37751;52.408;12.536;2023-06-14T07:29:59;9.98;;;4.90;;
51664;SDS011;37751;52.408;12.536;2023-06-14T07:32:27;7.07;;;4.80;;
51664;SDS011;37751;52.408;12.536;2023-06-14T07:34:54;7.65;;;4.85;;
51664;SDS011;37751;52.408;12.536;2023-06-14T07:37:22;7.07;;;4.20;;
51664;SDS011;37751;52.408;12.536;2023-06-14T07:39:50;6.53;;;4.72;;
51664;SDS011;37751;52.408;12.536;2023-06-14T07:42:18;8.55;;;4.88;;
51664;SDS011;37751;52.408;12.536;2023-06-14T07:44:46;6.88;;;4.75;;
51664;SDS011;37751;52.408;12.536;2023-06-14T07:47:14;7.70;;;4.30;;
51664;SDS011;37751;52.408;12.536;2023-06-14T07:49:42;11.23;;;4.75;;
51664;SDS011;37751;52.408;12.536;2023-06-14T07:52:10;9.15;;;5.32;;
51664;SDS011;37751;52.408;12.536;2023-06-14T07:54:38;8.35;;;5.40;;
51664;SDS011;37751;52.408;12.536;2023-06-14T07:57:08;8.23;;;4.68;;
51664;SDS011;37751;52.408;12.536;2023-06-14T07:59:36;12.07;;;4.85;;
51664;SDS011;37751;52.408;12.536;2023-06-14T08:02:04;10.98;;;5.00;;
51664;SDS011;37751;52.408;12.536;2023-06-14T08:04:32;9.43;;;5.50;;
51664;SDS011;37751;52.408;12.536;2023-06-14T08:07:00;7.85;;;4.90;;
51664;SDS011;37751;52.408;12.536;2023-06-14T08:09:28;12.80;;;5.47;;
51664;SDS011;37751;52.408;12.536;2023-06-14T08:11:57;7.25;;;4.75;;
51664;SDS011;37751;52.408;12.536;2023-06-14T08:14:25;8.98;;;4.60;;
51664;SDS011;37751;52.408;12.536;2023-06-14T08:16:53;6.15;;;4.85;;
51664;SDS011;37751;52.408;12.536;2023-06-14T08:19:20;12.48;;;5.13;;
51664;SDS011;37751;52.408;12.536;2023-06-14T08:21:48;13.88;;;4.82;;
51664;SDS011;37751;52.408;12.536;2023-06-14T08:24:17;7.18;;;4.00;;
51664;SDS011;37751;52.408;12.536;2023-06-14T08:26:46;10.00;;;4.30;;
51664;SDS011;37751;52.408;12.536;2023-06-14T08:29:14;12.30;;;3.70;;
51664;SDS011;37751;52.408;12.536;2023-06-14T08:31:42;8.88;;;4.07;;
51664;SDS011;37751;52.408;12.536;2023-06-14T08:34:10;5.65;;;4.15;;
51664;SDS011;37751;52.408;12.536;2023-06-14T08:36:38;7.97;;;3.85;;
51664;SDS011;37751;52.408;12.536;2023-06-14T08:39:06;7.75;;;4.47;;
51664;SDS011;37751;52.408;12.536;2023-06-14T08:41:36;8.80;;;3.63;;
51664;SDS011;37751;52.408;12.536;2023-06-14T08:44:04;9.05;;;4.13;;
51664;SDS011;37751;52.408;12.536;2023-06-14T08:46:33;10.57;;;3.85;;
51664;SDS011;37751;52.408;12.536;2023-06-14T08:49:02;7.25;;;3.47;;
51664;SDS011;37751;52.408;12.536;2023-06-14T08:51:33;14.90;;;3.50;;
51664;SDS011;37751;52.408;12.536;2023-06-14T08:54:04;6.30;;;3.78;;
51664;SDS011;37751;52.408;12.536;2023-06-14T08:56:32;7.15;;;4.00;;
51664;SDS011;37751;52.408;12.536;2023-06-14T08:59:01;12.52;;;3.95;;
51664;SDS011;37751;52.408;12.536;2023-06-14T09:01:34;11.10;;;3.75;;
51664;SDS011;37751;52.408;12.536;2023-06-14T09:04:03;10.55;;;3.78;;
51664;SDS011;37751;52.408;12.536;2023-06-14T09:06:34;6.38;;;3.53;;
51664;SDS011;37751;52.408;12.536;2023-06-14T09:09:04;8.02;;;3.38;;
51664;SDS011;37751;52.408;12.536;2023-06-14T09:11:32;5.90;;;3.60;;
51664;SDS011;37751;52.408;12.536;2023-06-14T09:14:00;7.57;;;3.30;;
51664;SDS011;37751;52.408;12.536;2023-06-14T09:16:28;5.25;;;3.35;;
51664;SDS011;37751;52.408;12.536;2023-06-14T09:18:59;7.97;;;2.75;;
51664;SDS011;37751;52.408;12.536;2023-06-14T09:21:27;6.80;;;2.97;;
51664;SDS011;37751;52.408;12.536;2023-06-14T09:23:58;14.32;;;4.28;;
51664;SDS011;37751;52.408;12.536;2023-06-14T09:26:27;5.38;;;3.00;;
51664;SDS011;37751;52.408;12.536;2023-06-14T09:28:55;8.38;;;2.60;;
51664;SDS011;37751;52.408;12.536;2023-06-14T09:31:23;12.25;;;3.08;;
51664;SDS011;37751;52.408;12.536;2023-06-14T09:33:51;5.45;;;3.40;;
51664;SDS011;37751;52.408;12.536;2023-06-14T09:36:23;4.65;;;3.10;;
51664;SDS011;37751;52.408;12.536;2023-06-14T09:38:58;9.18;;;2.95;;
51664;SDS011;37751;52.408;12.536;2023-06-14T09:44:07;6.55;;;3.10;;
51664;SDS011;37751;52.408;12.536;2023-06-14T09:46:45;9.13;;;2.80;;
51664;SDS011;37751;52.408;12.536;2023-06-14T09:49:13;5.45;;;3.00;;
51664;SDS011;37751;52.408;12.536;2023-06-14T09:51:42;10.68;;;2.70;;
51664;SDS011;37751;52.408;12.536;2023-06-14T09:54:16;8.27;;;3.10;;
51664;SDS011;37751;52.408;12.536;2023-06-14T09:56:50;9.15;;;3.05;;
51664;SDS011;37751;52.408;12.536;2023-06-14T09:59:19;16.40;;;3.45;;
51664;SDS011;37751;52.408;12.536;2023-06-14T10:01:59;9.68;;;3.10;;
51664;SDS011;37751;52.408;12.536;2023-06-14T10:04:36;15.23;;;3.17;;
51664;SDS011;37751;52.408;12.536;2023-06-14T10:07:07;9.02;;;2.70;;
51664;SDS011;37751;52.408;12.536;2023-06-14T10:09:35;9.45;;;3.72;;
51664;SDS011;37751;52.408;12.536;2023-06-14T10:12:04;7.32;;;3.00;;
51664;SDS011;37751;52.408;12.536;2023-06-14T10:14:32;9.85;;;2.90;;
51664;SDS011;37751;52.408;12.536;2023-06-14T10:17:08;4.20;;;3.25;;
51664;SDS011;37751;52.408;12.536;2023-06-14T10:19:48;5.63;;;2.58;;
51664;SDS011;37751;52.408;12.536;2023-06-14T10:23:25;4.32;;;3.10;;
51664;SDS011;37751;52.408;12.536;2023-06-14T10:25:43;7.18;;;3.10;;
51664;SDS011;37751;52.408;12.536;2023-06-14T10:30:39;8.77;;;3.47;;
51664;SDS011;37751;52.408;12.536;2023-06-14T10:33:07;6.18;;;3.30;;
51664;SDS011;37751;52.408;12.536;2023-06-14T10:35:35;12.35;;;3.45;;
51664;SDS011;37751;52.408;12.536;2023-06-14T10:38:07;5.50;;;3.13;;
51664;SDS011;37751;52.408;12.536;2023-06-14T10:40:41;6.88;;;2.92;;
51664;SDS011;37751;52.408;12.536;2023-06-14T10:43:22;4.35;;;2.50;;
51664;SDS011;37751;52.408;12.536;2023-06-14T10:48:45;9.35;;;3.00;;
51664;SDS011;37751;52.408;12.536;2023-06-14T10:51:16;6.38;;;2.95;;
51664;SDS011;37751;52.408;12.536;2023-06-14T10:53:48;12.43;;;3.17;;
51664;SDS011;37751;52.408;12.536;2023-06-14T10:56:24;10.18;;;2.92;;
51664;SDS011;37751;52.408;12.536;2023-06-14T10:58:58;9.13;;;3.00;;
51664;SDS011;37751;52.408;12.536;2023-06-14T11:01:31;8.52;;;3.30;;
51664;SDS011;37751;52.408;12.536;2023-06-14T11:04:13;7.82;;;3.13;;
51664;SDS011;37751;52.408;12.536;2023-06-14T11:12:19;7.80;;;3.10;;
51664;SDS011;37751;52.408;12.536;2023-06-14T11:14:48;4.82;;;2.85;;
51664;SDS011;37751;52.408;12.536;2023-06-14T11:17:16;3.92;;;2.80;;
51664;SDS011;37751;52.408;12.536;2023-06-14T11:19:44;8.25;;;3.30;;
51664;SDS011;37751;52.408;12.536;2023-06-14T11:22:12;8.05;;;2.83;;
51664;SDS011;37751;52.408;12.536;2023-06-14T11:24:42;9.75;;;3.85;;
51664;SDS011;37751;52.408;12.536;2023-06-14T11:27:11;9.82;;;3.08;;
51664;SDS011;37751;52.408;12.536;2023-06-14T11:29:47;10.80;;;3.13;;
51664;SDS011;37751;52.408;12.536;2023-06-14T11:32:16;6.47;;;2.85;;
51664;SDS011;37751;52.408;12.536;2023-06-14T11:34:45;5.50;;;2.92;;
51664;SDS011;37751;52.408;12.536;2023-06-14T11:37:16;6.68;;;3.10;;
51664;SDS011;37751;52.408;12.536;2023-06-14T11:39:44;7.70;;;3.20;;
51664;SDS011;37751;52.408;12.536;2023-06-14T11:42:15;4.38;;;3.05;;
51664;SDS011;37751;52.408;12.536;2023-06-14T11:44:46;5.63;;;3.08;;
51664;SDS011;37751;52.408;12.536;2023-06-14T11:47:14;14.98;;;2.60;;
51664;SDS011;37751;52.408;12.536;2023-06-14T11:49:42;8.50;;;2.95;;
51664;SDS011;37751;52.408;12.536;2023-06-14T11:52:10;5.97;;;2.95;;
51664;SDS011;37751;52.408;12.536;2023-06-14T11:54:38;6.72;;;3.08;;
51664;SDS011;37751;52.408;12.536;2023-06-14T11:57:08;6.82;;;3.00;;
51664;SDS011;37751;52.408;12.536;2023-06-14T11:59:43;10.55;;;2.97;;
51664;SDS011;37751;52.408;12.536;2023-06-14T12:02:15;9.30;;;2.70;;
51664;SDS011;37751;52.408;12.536;2023-06-14T12:04:47;7.90;;;2.95;;
51664;SDS011;37751;52.408;12.536;2023-06-14T12:07:19;7.70;;;2.55;;
51664;SDS011;37751;52.408;12.536;2023-06-14T12:12:21;9.93;;;2.78;;
51664;SDS011;37751;52.408;12.536;2023-06-14T12:14:57;9.68;;;2.70;;
51664;SDS011;37751;52.408;12.536;2023-06-14T12:18:08;11.95;;;2.80;;
51664;SDS011;37751;52.408;12.536;2023-06-14T12:20:39;7.82;;;2.92;;
51664;SDS011;37751;52.408;12.536;2023-06-14T12:23:08;7.15;;;2.53;;
51664;SDS011;37751;52.408;12.536;2023-06-14T12:25:50;7.85;;;3.25;;
51664;SDS011;37751;52.408;12.536;2023-06-14T12:28:19;9.80;;;3.20;;
51664;SDS011;37751;52.408;12.536;2023-06-14T12:30:47;11.60;;;3.10;;
51664;SDS011;37751;52.408;12.536;2023-06-14T12:33:15;4.95;;;2.88;;
51664;SDS011;37751;52.408;12.536;2023-06-14T12:35:43;7.28;;;2.80;;
51664;SDS011;37751;52.408;12.536;2023-06-14T12:38:12;10.73;;;3.20;;
51664;SDS011;37751;52.408;12.536;2023-06-14T12:40:42;7.30;;;2.83;;
51664;SDS011;37751;52.408;12.536;2023-06-14T12:43:14;9.57;;;3.17;;
51664;SDS011;37751;52.408;12.536;2023-06-14T12:45:45;11.20;;;2.58;;
51664;SDS011;37751;52.408;12.536;2023-06-14T12:48:12;5.68;;;2.58;;
51664;SDS011;37751;52.408;12.536;2023-06-14T12:50:41;5.85;;;2.70;;
51664;SDS011;37751;52.408;12.536;2023-06-14T12:53:09;7.07;;;2.97;;
51664;SDS011;37751;52.408;12.536;2023-06-14T12:55:36;6.55;;;2.65;;
51664;SDS011;37751;52.408;12.536;2023-06-14T12:58:04;6.15;;;2.53;;
51664;SDS011;37751;52.408;12.536;2023-06-14T13:00:32;17.05;;;3.05;;
51664;SDS011;37751;52.408;12.536;2023-06-14T13:03:00;10.85;;;3.05;;
51664;SDS011;37751;52.408;12.536;2023-06-14T13:05:28;8.88;;;3.38;;
51664;SDS011;37751;52.408;12.536;2023-06-14T13:07:56;8.10;;;2.83;;
51664;SDS011;37751;52.408;12.536;2023-06-14T13:10:23;7.45;;;3.22;;
51664;SDS011;37751;52.408;12.536;2023-06-14T13:12:53;4.80;;;2.42;;
51664;SDS011;37751;52.408;12.536;2023-06-14T13:15:20;12.02;;;2.97;;
51664;SDS011;37751;52.408;12.536;2023-06-14T13:17:48;9.52;;;2.78;;
51664;SDS011;37751;52.408;12.536;2023-06-14T13:20:16;6.97;;;2.45;;
51664;SDS011;37751;52.408;12.536;2023-06-14T13:22:47;8.05;;;2.97;;
51664;SDS011;37751;52.408;12.536;2023-06-14T13:25:15;12.15;;;2.97;;
51664;SDS011;37751;52.408;12.536;2023-06-14T13:27:42;9.45;;;3.00;;
51664;SDS011;37751;52.408;12.536;2023-06-14T13:30:11;6.18;;;2.75;;
51664;SDS011;37751;52.408;12.536;2023-06-14T13:32:39;10.88;;;3.28;;
51664;SDS011;37751;52.408;12.536;2023-06-14T13:35:07;13.80;;;3.17;;
51664;SDS011;37751;52.408;12.536;2023-06-14T13:37:35;9.93;;;2.80;;
51664;SDS011;37751;52.408;12.536;2023-06-14T13:40:03;11.35;;;2.70;;
51664;SDS011;37751;52.408;12.536;2023-06-14T13:42:33;6.32;;;2.75;;
51664;SDS011;37751;52.408;12.536;2023-06-14T13:45:01;4.97;;;2.65;;
51664;SDS011;37751;52.408;12.536;2023-06-14T13:47:31;15.73;;;8.40;;
51664;SDS011;37751;52.408;12.536;2023-06-14T13:49:59;13.38;;;6.45;;
51664;SDS011;37751;52.408;12.536;2023-06-14T13:52:27;8.65;;;3.50;;
51664;SDS011;37751;52.408;12.536;2023-06-14T13:54:55;7.43;;;3.13;;
51664;SDS011;37751;52.408;12.536;2023-06-14T13:57:23;6.38;;;2.80;;
51664;SDS011;37751;52.408;12.536;2023-06-14T13:59:51;8.18;;;3.22;;
51664;SDS011;37751;52.408;12.536;2023-06-14T14:02:20;10.63;;;3.22;;
51664;SDS011;37751;52.408;12.536;2023-06-14T14:04:48;4.70;;;2.88;;
51664;SDS011;37751;52.408;12.536;2023-06-14T14:07:20;9.40;;;3.35;;
51664;SDS011;37751;52.408;12.536;2023-06-14T14:09:49;13.40;;;2.75;;
51664;SDS011;37751;52.408;12.536;2023-06-14T14:12:17;6.85;;;2.42;;
51664;SDS011;37751;52.408;12.536;2023-06-14T14:14:45;7.97;;;2.65;;
51664;SDS011;37751;52.408;12.536;2023-06-14T14:17:13;15.68;;;3.22;;
51664;SDS011;37751;52.408;12.536;2023-06-14T14:19:41;8.50;;;2.72;;
51664;SDS011;37751;52.408;12.536;2023-06-14T14:22:09;9.73;;;2.53;;
51664;SDS011;37751;52.408;12.536;2023-06-14T14:24:37;10.80;;;2.95;;
51664;SDS011;37751;52.408;12.536;2023-06-14T14:27:05;5.35;;;3.17;;
51664;SDS011;37751;52.408;12.536;2023-06-14T14:29:33;10.70;;;2.67;;
51664;SDS011;37751;52.408;12.536;2023-06-14T14:32:01;6.75;;;2.83;;
51664;SDS011;37751;52.408;12.536;2023-06-14T14:34:30;9.38;;;2.90;;
51664;SDS011;37751;52.408;12.536;2023-06-14T14:36:58;7.78;;;3.40;;
51664;SDS011;37751;52.408;12.536;2023-06-14T14:39:25;5.43;;;3.75;;
51664;SDS011;37751;52.408;12.536;2023-06-14T14:41:53;11.35;;;3.53;;
51664;SDS011;37751;52.408;12.536;2023-06-14T14:44:21;9.48;;;4.03;;
51664;SDS011;37751;52.408;12.536;2023-06-14T14:46:49;11.43;;;3.15;;
51664;SDS011;37751;52.408;12.536;2023-06-14T14:49:16;5.13;;;2.60;;
51664;SDS011;37751;52.408;12.536;2023-06-14T14:51:44;6.35;;;2.40;;
51664;SDS011;37751;52.408;12.536;2023-06-14T14:54:12;6.18;;;2.53;;
51664;SDS011;37751;52.408;12.536;2023-06-14T14:56:40;6.22;;;2.97;;
51664;SDS011;37751;52.408;12.536;2023-06-14T14:59:08;6.88;;;3.38;;
51664;SDS011;37751;52.408;12.536;2023-06-14T15:01:35;5.60;;;2.80;;
51664;SDS011;37751;52.408;12.536;2023-06-14T15:04:03;6.57;;;2.70;;
51664;SDS011;37751;52.408;12.536;2023-06-14T15:06:31;9.45;;;3.10;;
51664;SDS011;37751;52.408;12.536;2023-06-14T15:09:06;4.95;;;2.55;;
51664;SDS011;37751;52.408;12.536;2023-06-14T15:11:34;7.40;;;3.17;;
51664;SDS011;37751;52.408;12.536;2023-06-14T15:14:01;6.20;;;2.70;;
51664;SDS011;37751;52.408;12.536;2023-06-14T15:16:32;8.93;;;2.50;;
51664;SDS011;37751;52.408;12.536;2023-06-14T15:18:59;5.57;;;2.60;;
51664;SDS011;37751;52.408;12.536;2023-06-14T15:21:27;7.00;;;3.00;;
51664;SDS011;37751;52.408;12.536;2023-06-14T15:23:55;7.60;;;2.50;;
51664;SDS011;37751;52.408;12.536;2023-06-14T15:26:23;9.38;;;3.03;;
51664;SDS011;37751;52.408;12.536;2023-06-14T15:28:51;6.65;;;2.80;;
51664;SDS011;37751;52.408;12.536;2023-06-14T15:31:19;6.65;;;3.17;;
51664;SDS011;37751;52.408;12.536;2023-06-14T15:33:47;7.53;;;3.30;;